FYGA4: White River At Fayetteville, AR

                                SHEF ID:       FYGA4     White River near Fayetteville, A
STATION TYPE: Stream Gauge

PRECIP STAGE RIV-FLOW WTR-TEMP DIS-OXY PH CONDUCT BAT-LOAD
in ft cfs F mg/l su umho/cm volt
Ccp-Rev Ccp-Rev Ccp-Rev Ccp-Rev Ccp-Rev Ccp-Rev Ccp-Rev Ccp-Rev
(America/Chicago)
05/05 00:00 0.00 3.37 519 66.72 8.56 7.56 93 12.73
05/05 01:00 0.00 3.38 525 66.60 8.56 7.51 94 12.65
05/05 02:00 0.01 3.37 519 66.52 8.56 7.53 94 12.65
05/05 03:00 0.32 3.48 579 66.34 8.61 7.55 92 12.65
05/05 04:00 1.10 3.59 642 66.02 8.63 7.55 88 12.57
05/05 05:00 0.03 3.78 761 65.84 8.67 7.55 92 12.57
05/05 06:00 0.01 3.95 878 65.80 8.64 7.58 99 12.57
05/05 07:00 0.00 4.49 1315 65.71 8.52 7.65 123 12.49
05/05 08:00 0.00 4.25 1107 65.73 8.54 7.57 118 12.49
05/05 09:00 0.00 4.00 914 65.73 8.55 7.60 115 13.05
05/05 10:00 0.00 3.85 808 65.88 8.54 7.60 111 13.29
05/05 11:00 0.00 3.79 768 66.27 8.57 7.54 103 13.37
05/05 12:00 0.00 3.82 788 66.27 8.56 7.55 96 13.13
05/05 13:00 0.00 3.93 863 66.54 8.64 7.56 90 13.05
05/05 14:00 0.00 4.06 958 66.85 8.68 7.50 87 13.05
05/05 15:00 0.00 4.13 1012 66.70 8.64 7.51 85 12.97
05/05 16:00 0.00 4.30 1149 66.65 8.72 7.53 82 12.97
05/05 17:00 0.00 4.35 1191 66.58 8.70 7.51 82 12.97
05/05 18:00 0.00 4.38 1217 66.42 8.72 7.50 83 12.89
05/05 19:00 0.00 4.36 1200 66.29 8.71 7.50 85 12.81
05/05 20:00 0.00 4.30 1149 66.20 8.71 7.49 87 12.73
05/05 21:00 0.00 4.26 1116 66.15 8.72 7.51 86 12.65
05/05 22:00 0.00 4.21 1075 66.04 8.71 7.50 87 12.65
05/05 23:00 0.00 4.14 1019 65.89 8.71 7.49 89 12.65
Data processed at Wed 06May2026 04:10 GMT

NOTICE: If you are parsing this page

Please convert to using our Data API. Starting early 2026 we will be migrating to: https://water.usace.army.mil with modern pages rendered in JavaScript. When this migration completes you will no longer be able to scrape this page! CWMSDataAPI (CDA)

Timeseries IDs (TSIDs)

TSIDs used from left to right in the data table
FAYE.Precip-Inc.Total.1Hour.1Hour.Ccp-Rev
FAYE.Stage.Inst.1Hour.0.Ccp-Rev
FAYE.Flow.Inst.1Hour.0.Ccp-Rev
FAYE.Temp-Water.Inst.1Hour.0.Ccp-Rev
FAYE.Conc-DO.Inst.1Hour.0.Ccp-Rev
FAYE.pH.Inst.1Hour.0.Ccp-Rev
FAYE.Cond-Water.Inst.1Hour.0.Ccp-Rev
FAYE.Volt-Battery Load.Inst.1Hour.0.Ccp-Rev

                            

All information presented herein is the property of the government of the United States of America and may be revised or deleted at any time without prior notice. Dissemination of this information without the expressed written consent of the Public Affairs Office, Tulsa District U.S. Army Corps of Engineers is strictly prohibited. These data are gathered electronically and, as presented, have NOT undergone any form of quality control. These data are NOT guaranteed to be valid or correct.